Time;durP1;ratioP1;P1;durP2;ratioP2;P2;SDS_P1;SDS_P2;PMS_P1;PMS_P2;Temp;Humidity;BMP_temperature;BMP_pressure;BME280_temperature;BME280_humidity;BME280_pressure;Samples;Min_cycle;Max_cycle;Signal;HPM_P1;HPM_P2
2022/11/22 00:01:05;;;;;;;10.38;4.65;;;;;;;;;;4989951;28;20420;-82
2022/11/22 00:03:33;;;;;;;;;;;;;;;;;;4990123;28;20042;-82
2022/11/22 00:06:04;;;;;;;6.07;4.57;;;;;;;;;;4994108;28;19916;-83
2022/11/22 00:08:32;;;;;;;5.25;4.80;;;;;;;;;;4986313;28;20033;-83
2022/11/22 00:11:00;;;;;;;9.07;3.60;;;;;;;;;;4973161;28;20037;-83
2022/11/22 00:13:28;;;;;;;9.10;5.82;;;;;;;;;;4990363;28;20034;-82
2022/11/22 00:15:58;;;;;;;5.53;4.28;;;;;;;;;;4987997;28;20046;-82
2022/11/22 00:18:26;;;;;;;7.07;4.15;;;;;;;;;;4992313;28;20396;-83
2022/11/22 00:20:52;;;;;;;4.63;4.18;;;;;;;;;;5001779;28;20037;-82
2022/11/22 00:23:17;;;;;;;8.80;3.63;;;;;;;;;;4985428;28;20488;-82
2022/11/22 00:25:44;;;;;;;5.18;3.53;;;;;;;;;;5006949;28;20439;-82
2022/11/22 00:28:12;;;;;;;8.38;5.78;;;;;;;;;;4987352;28;20030;-83
2022/11/22 00:30:38;;;;;;;8.05;5.28;;;;;;;;;;4999371;28;20026;-83
2022/11/22 00:33:04;;;;;;;5.85;3.88;;;;;;;;;;4989565;28;20022;-83
2022/11/22 00:35:37;;;;;;;11.70;3.80;;;;;;;;;;4988170;28;20381;-82
2022/11/22 00:38:07;;;;;;;4.60;3.53;;;;;;;;;;4987106;28;20042;-82
2022/11/22 00:40:36;;;;;;;9.48;4.32;;;;;;;;;;4989028;28;20031;-83
2022/11/22 00:43:06;;;;;;;7.97;4.25;;;;;;;;;;4982197;28;20523;-82
2022/11/22 00:45:32;;;;;;;5.75;4.78;;;;;;;;;;4954662;28;20045;-82
2022/11/22 00:48:02;;;;;;;7.35;4.70;;;;;;;;;;4985413;28;20023;-82
2022/11/22 00:50:29;;;;;;;13.80;4.47;;;;;;;;;;4991365;28;20033;-83
2022/11/22 00:52:57;;;;;;;5.82;4.70;;;;;;;;;;4973090;28;20039;-82
2022/11/22 00:55:23;;;;;;;8.05;4.68;;;;;;;;;;4987904;28;20041;-82
2022/11/22 00:57:49;;;;;;;5.35;4.47;;;;;;;;;;4995151;28;20459;-82
2022/11/22 01:00:15;;;;;;;6.70;4.85;;;;;;;;;;4997497;28;20018;-82
2022/11/22 01:02:43;;;;;;;5.53;4.15;;;;;;;;;;5003572;28;20039;-83
2022/11/22 01:05:09;;;;;;;9.20;4.47;;;;;;;;;;4994624;28;20064;-82
2022/11/22 01:07:35;;;;;;;7.38;4.28;;;;;;;;;;4971635;28;20027;-83
2022/11/22 01:10:03;;;;;;;8.63;4.53;;;;;;;;;;4971687;28;20027;-82
2022/11/22 01:12:31;;;;;;;4.38;3.95;;;;;;;;;;5001810;28;20412;-83
2022/11/22 01:14:59;;;;;;;10.55;5.72;;;;;;;;;;5002986;28;20026;-82
2022/11/22 01:17:27;;;;;;;7.65;4.57;;;;;;;;;;5027752;23;20057;-74
2022/11/22 01:19:55;;;;;;;5.75;4.38;;;;;;;;;;5017825;28;20025;-75
2022/11/22 01:22:21;;;;;;;5.65;4.28;;;;;;;;;;5031359;28;20026;-74
2022/11/22 01:24:50;;;;;;;4.95;4.43;;;;;;;;;;5039641;28;20033;-74
2022/11/22 01:27:15;;;;;;;5.45;3.38;;;;;;;;;;5031433;28;20025;-74
2022/11/22 01:29:41;;;;;;;6.47;5.00;;;;;;;;;;5013358;28;20442;-74
2022/11/22 01:32:09;;;;;;;10.60;4.75;;;;;;;;;;5021121;28;20563;-74
2022/11/22 01:34:35;;;;;;;7.25;4.57;;;;;;;;;;5010450;28;20046;-74
2022/11/22 01:37:06;;;;;;;11.10;5.68;;;;;;;;;;5019361;28;20406;-74
2022/11/22 01:39:32;;;;;;;4.28;3.75;;;;;;;;;;5018777;28;20093;-74
2022/11/22 01:42:00;;;;;;;7.32;4.55;;;;;;;;;;5025459;28;20501;-74
2022/11/22 01:44:27;;;;;;;7.57;4.55;;;;;;;;;;5024811;28;20070;-74
2022/11/22 01:47:04;;;;;;;5.60;5.05;;;;;;;;;;5035102;28;20039;-74
2022/11/22 01:49:36;;;;;;;8.43;4.90;;;;;;;;;;5042825;28;20030;-75
2022/11/22 01:52:07;;;;;;;7.13;5.38;;;;;;;;;;5022794;28;20037;-74
2022/11/22 01:54:39;;;;;;;6.97;4.82;;;;;;;;;;5021534;28;20033;-74
2022/11/22 01:57:15;;;;;;;6.00;4.43;;;;;;;;;;5024636;28;20049;-74
2022/11/22 01:59:47;;;;;;;7.10;6.03;;;;;;;;;;5035935;28;20038;-74
2022/11/22 02:02:15;;;;;;;8.15;5.20;;;;;;;;;;5028687;28;20048;-75
2022/11/22 02:04:44;;;;;;;5.03;4.47;;;;;;;;;;5025219;28;20040;-74
2022/11/22 02:07:12;;;;;;;10.52;4.70;;;;;;;;;;5045896;28;20028;-74
2022/11/22 02:09:41;;;;;;;5.93;4.40;;;;;;;;;;5016176;28;20488;-74
2022/11/22 02:12:07;;;;;;;6.35;4.65;;;;;;;;;;5011490;28;21872;-74
2022/11/22 02:14:33;;;;;;;7.53;4.95;;;;;;;;;;5031862;28;20030;-74
2022/11/22 02:17:01;;;;;;;8.20;5.00;;;;;;;;;;5042207;28;20035;-74
2022/11/22 02:19:45;;;;;;;7.80;4.63;;;;;;;;;;5045903;28;20033;-74
2022/11/22 02:22:30;;;;;;;6.82;5.25;;;;;;;;;;5017095;28;20096;-74
2022/11/22 02:25:07;;;;;;;11.05;6.18;;;;;;;;;;5022081;28;20048;-74
2022/11/22 02:27:32;;;;;;;7.68;5.75;;;;;;;;;;5028590;28;20479;-74
2022/11/22 02:30:00;;;;;;;5.78;4.85;;;;;;;;;;5029187;28;20029;-74
2022/11/22 02:32:26;;;;;;;6.97;4.43;;;;;;;;;;5033539;28;20076;-73
2022/11/22 02:34:54;;;;;;;7.13;4.82;;;;;;;;;;5030074;28;20080;-74
2022/11/22 02:37:26;;;;;;;5.28;4.55;;;;;;;;;;5024165;28;20029;-74
2022/11/22 02:39:56;;;;;;;8.10;5.22;;;;;;;;;;5034044;28;20041;-74
2022/11/22 02:42:22;;;;;;;8.88;6.00;;;;;;;;;;5034506;28;20044;-74
2022/11/22 02:44:52;;;;;;;6.38;5.40;;;;;;;;;;5030284;28;20034;-74
2022/11/22 02:47:23;;;;;;;9.10;6.20;;;;;;;;;;5007555;28;20033;-74
2022/11/22 02:49:51;;;;;;;8.65;5.82;;;;;;;;;;5040373;28;20271;-74
2022/11/22 02:52:19;;;;;;;7.93;6.05;;;;;;;;;;5021259;28;20033;-75
2022/11/22 02:54:45;;;;;;;6.20;5.03;;;;;;;;;;5030670;28;20038;-74
2022/11/22 02:57:11;;;;;;;6.75;5.28;;;;;;;;;;5020939;28;20029;-74
2022/11/22 02:59:37;;;;;;;8.18;5.68;;;;;;;;;;5005220;28;20038;-74
2022/11/22 03:02:05;;;;;;;7.35;6.28;;;;;;;;;;5038661;28;20168;-74
2022/11/22 03:04:36;;;;;;;10.10;5.85;;;;;;;;;;5038146;28;20037;-74
2022/11/22 03:07:07;;;;;;;8.25;6.32;;;;;;;;;;5016052;28;20400;-74
2022/11/22 03:09:33;;;;;;;11.18;6.13;;;;;;;;;;5016313;28;20025;-74
2022/11/22 03:11:59;;;;;;;9.82;6.63;;;;;;;;;;4995472;28;20430;-73
2022/11/22 03:14:24;;;;;;;7.50;5.30;;;;;;;;;;5047898;28;20514;-74
2022/11/22 03:16:53;;;;;;;10.38;6.40;;;;;;;;;;5017450;28;20057;-73
2022/11/22 03:19:18;;;;;;;10.95;6.38;;;;;;;;;;5000097;28;20495;-73
2022/11/22 03:21:44;;;;;;;11.50;6.55;;;;;;;;;;5008938;28;20121;-73
2022/11/22 03:24:10;;;;;;;10.63;7.32;;;;;;;;;;5040332;28;20041;-75
2022/11/22 03:26:39;;;;;;;10.77;6.07;;;;;;;;;;5009050;28;20025;-74
2022/11/22 03:29:07;;;;;;;9.10;5.75;;;;;;;;;;5026260;28;20037;-74
2022/11/22 03:31:37;;;;;;;8.60;6.15;;;;;;;;;;5029844;28;20502;-75
2022/11/22 03:34:03;;;;;;;9.40;6.72;;;;;;;;;;5026571;28;20038;-74
2022/11/22 03:36:29;;;;;;;9.98;6.68;;;;;;;;;;5015530;28;20116;-74
2022/11/22 03:38:54;;;;;;;7.20;5.63;;;;;;;;;;5018480;28;20029;-74
2022/11/22 03:41:25;;;;;;;8.82;5.30;;;;;;;;;;5025604;28;20052;-74
2022/11/22 03:43:51;;;;;;;6.40;4.90;;;;;;;;;;5031123;28;20025;-74
2022/11/22 03:46:18;;;;;;;9.20;5.13;;;;;;;;;;5019092;28;20034;-74
2022/11/22 03:48:44;;;;;;;10.45;6.22;;;;;;;;;;5006311;28;20025;-74
2022/11/22 03:51:10;;;;;;;8.25;5.68;;;;;;;;;;5028645;28;20499;-74
2022/11/22 03:53:36;;;;;;;7.47;4.93;;;;;;;;;;5037605;28;20021;-74
2022/11/22 03:56:04;;;;;;;6.55;5.47;;;;;;;;;;5034430;28;20021;-74
2022/11/22 03:58:30;;;;;;;5.00;4.40;;;;;;;;;;5007233;28;20041;-74
2022/11/22 04:00:58;;;;;;;7.75;5.78;;;;;;;;;;5011775;28;20038;-74
2022/11/22 04:03:26;;;;;;;12.70;5.22;;;;;;;;;;5030543;28;20029;-74
2022/11/22 04:05:55;;;;;;;7.15;5.45;;;;;;;;;;5009815;28;20045;-75
2022/11/22 04:08:26;;;;;;;10.07;4.50;;;;;;;;;;5007290;28;20030;-74
2022/11/22 04:10:51;;;;;;;7.93;3.85;;;;;;;;;;5027433;28;20092;-74
2022/11/22 04:13:20;;;;;;;6.50;4.53;;;;;;;;;;5020529;28;20034;-74
2022/11/22 04:15:48;;;;;;;7.13;4.50;;;;;;;;;;5031899;28;20037;-75
2022/11/22 04:18:14;;;;;;;7.22;4.43;;;;;;;;;;5022448;28;20041;-74
2022/11/22 04:23:33;;;;;;;9.57;4.35;;;;;;;;;;5024309;28;20029;-74
2022/11/22 04:25:59;;;;;;;9.35;3.65;;;;;;;;;;5028589;28;20028;-74
2022/11/22 04:28:27;;;;;;;7.38;3.72;;;;;;;;;;5034717;28;20082;-75
2022/11/22 04:33:43;;;;;;;12.65;4.07;;;;;;;;;;5022590;28;20026;-75
2022/11/22 04:36:11;;;;;;;8.30;3.80;;;;;;;;;;5012803;28;20422;-75
2022/11/22 04:38:37;;;;;;;6.10;4.10;;;;;;;;;;5022433;28;20391;-75
2022/11/22 04:41:02;;;;;;;13.45;3.92;;;;;;;;;;5021732;28;20037;-75
2022/11/22 04:46:15;;;;;;;7.95;3.13;;;;;;;;;;5033467;28;20033;-75
2022/11/22 04:48:45;;;;;;;13.20;3.80;;;;;;;;;;5031358;28;20026;-76
2022/11/22 04:54:00;;;;;;;11.82;3.72;;;;;;;;;;5028036;28;20391;-75
2022/11/22 04:56:26;;;;;;;7.00;3.60;;;;;;;;;;5024413;28;20025;-75
2022/11/22 04:58:57;;;;;;;6.35;3.03;;;;;;;;;;5036167;28;20036;-75
2022/11/22 05:01:25;;;;;;;7.88;4.15;;;;;;;;;;5034980;28;20025;-76
2022/11/22 05:03:58;;;;;;;5.45;2.90;;;;;;;;;;5032323;28;20080;-76
2022/11/22 05:06:26;;;;;;;6.63;3.35;;;;;;;;;;5030875;28;20026;-75
2022/11/22 05:08:52;;;;;;;6.60;2.88;;;;;;;;;;5027363;28;20036;-75
2022/11/22 05:11:18;;;;;;;4.57;2.53;;;;;;;;;;5032524;28;20037;-76
2022/11/22 05:13:44;;;;;;;3.97;2.47;;;;;;;;;;5000932;28;20122;-75
2022/11/22 05:16:13;;;;;;;6.20;3.15;;;;;;;;;;5013560;28;20041;-76
2022/11/22 05:18:41;;;;;;;7.20;3.00;;;;;;;;;;5031877;28;20056;-76
2022/11/22 05:21:11;;;;;;;6.68;2.60;;;;;;;;;;5030881;28;20479;-76
2022/11/22 05:23:55;;;;;;;14.57;4.22;;;;;;;;;;5032345;28;20040;-75
2022/11/22 05:26:30;;;;;;;10.70;4.82;;;;;;;;;;5026966;28;20033;-75
2022/11/22 05:29:04;;;;;;;22.88;12.45;;;;;;;;;;5033103;28;20021;-76
2022/11/22 05:31:34;;;;;;;24.85;13.90;;;;;;;;;;5026574;28;20034;-76
2022/11/22 05:34:00;;;;;;;17.45;8.90;;;;;;;;;;5016704;28;20037;-76
2022/11/22 05:36:28;;;;;;;17.00;7.13;;;;;;;;;;4998884;28;20045;-76
2022/11/22 05:38:59;;;;;;;13.15;4.72;;;;;;;;;;5015623;28;20029;-76
2022/11/22 05:41:25;;;;;;;16.25;4.30;;;;;;;;;;5006395;28;20042;-76
2022/11/22 05:43:55;;;;;;;5.10;4.47;;;;;;;;;;5020166;28;20037;-76
2022/11/22 05:46:25;;;;;;;8.27;5.32;;;;;;;;;;5016036;28;20484;-75
2022/11/22 05:48:54;;;;;;;8.77;4.15;;;;;;;;;;5017183;28;20040;-76
2022/11/22 05:51:23;;;;;;;5.82;3.30;;;;;;;;;;4998890;28;20037;-76
2022/11/22 05:53:51;;;;;;;15.60;6.15;;;;;;;;;;4998931;28;20037;-76
2022/11/22 05:56:21;;;;;;;8.85;4.25;;;;;;;;;;4999617;28;20044;-76
2022/11/22 05:58:47;;;;;;;14.45;4.68;;;;;;;;;;4995734;28;20508;-76
2022/11/22 06:01:15;;;;;;;7.95;3.70;;;;;;;;;;5017509;28;20479;-76
2022/11/22 06:03:41;;;;;;;5.18;2.28;;;;;;;;;;4982224;28;20680;-76
2022/11/22 06:06:07;;;;;;;5.60;2.83;;;;;;;;;;5020892;28;20044;-76
2022/11/22 06:08:34;;;;;;;5.47;3.10;;;;;;;;;;5016951;28;20029;-76
2022/11/22 06:11:07;;;;;;;8.85;3.67;;;;;;;;;;5002571;28;20025;-76
2022/11/22 06:13:40;;;;;;;10.45;3.78;;;;;;;;;;5016298;28;20036;-76
2022/11/22 06:16:09;;;;;;;11.63;3.27;;;;;;;;;;5022181;28;20037;-76
2022/11/22 06:18:38;;;;;;;4.47;3.35;;;;;;;;;;5035316;28;20044;-76
2022/11/22 06:21:09;;;;;;;10.30;4.65;;;;;;;;;;5022664;28;20499;-75
2022/11/22 06:23:37;;;;;;;6.35;3.55;;;;;;;;;;5030417;28;20034;-75
2022/11/22 06:26:04;;;;;;;10.40;5.32;;;;;;;;;;5002077;28;20029;-75
2022/11/22 06:28:33;;;;;;;10.30;5.80;;;;;;;;;;5018471;28;20056;-75
2022/11/22 06:31:05;;;;;;;13.38;8.20;;;;;;;;;;5043224;28;20029;-76
2022/11/22 06:33:31;;;;;;;17.70;6.32;;;;;;;;;;5001721;28;20392;-76
2022/11/22 06:36:16;;;;;;;14.73;8.00;;;;;;;;;;5021887;28;20029;-76
2022/11/22 06:38:42;;;;;;;11.32;7.10;;;;;;;;;;5027434;28;20372;-75
2022/11/22 06:41:11;;;;;;;23.85;6.32;;;;;;;;;;5049508;28;20041;-76
2022/11/22 06:43:38;;;;;;;17.60;9.63;;;;;;;;;;5012837;28;20491;-76
2022/11/22 06:46:05;;;;;;;14.10;8.52;;;;;;;;;;5026061;28;20037;-75
2022/11/22 06:48:32;;;;;;;14.95;7.43;;;;;;;;;;5019642;28;20033;-75
2022/11/22 06:51:00;;;;;;;22.45;7.65;;;;;;;;;;5003685;28;20030;-76
2022/11/22 06:53:28;;;;;;;6.80;5.80;;;;;;;;;;5029602;28;20037;-75
2022/11/22 06:55:58;;;;;;;16.25;5.50;;;;;;;;;;5029622;28;20029;-75
2022/11/22 06:58:24;;;;;;;12.05;6.57;;;;;;;;;;5020994;28;20410;-76
2022/11/22 07:00:50;;;;;;;13.55;5.95;;;;;;;;;;5021142;28;20041;-75
2022/11/22 07:03:16;;;;;;;8.30;4.97;;;;;;;;;;5002707;28;20041;-75
2022/11/22 07:06:00;;;;;;;19.60;7.13;;;;;;;;;;5008254;28;20030;-76
2022/11/22 07:08:26;;;;;;;5.63;3.92;;;;;;;;;;5026801;28;20029;-78
2022/11/22 07:10:52;;;;;;;10.10;4.28;;;;;;;;;;5027227;28;20435;-75
2022/11/22 07:13:18;;;;;;;8.23;5.53;;;;;;;;;;5027985;28;20030;-75
2022/11/22 07:16:01;;;;;;;6.13;3.65;;;;;;;;;;5009148;28;20048;-73
2022/11/22 07:18:27;;;;;;;13.27;4.73;;;;;;;;;;4962531;28;20055;-84
2022/11/22 07:21:01;;;;;;;14.75;5.68;;;;;;;;;;4978549;28;20031;-84
2022/11/22 07:23:27;;;;;;;6.65;4.10;;;;;;;;;;4983968;28;20030;-84
2022/11/22 07:25:53;;;;;;;7.78;3.80;;;;;;;;;;4983474;28;20050;-84
2022/11/22 07:28:19;;;;;;;11.77;6.13;;;;;;;;;;4984846;28;20122;-84
2022/11/22 07:30:45;;;;;;;8.77;5.13;;;;;;;;;;5006407;28;20040;-84
2022/11/22 07:33:11;;;;;;;9.52;4.90;;;;;;;;;;4992062;28;20109;-84
2022/11/22 07:35:37;;;;;;;10.85;4.28;;;;;;;;;;4979980;28;20085;-84
2022/11/22 07:38:03;;;;;;;15.65;5.88;;;;;;;;;;5008774;28;20033;-84
2022/11/22 07:40:29;;;;;;;9.02;4.75;;;;;;;;;;4993179;28;20042;-84
2022/11/22 07:42:54;;;;;;;18.15;4.40;;;;;;;;;;4988908;28;20037;-84
2022/11/22 07:45:20;;;;;;;12.38;4.15;;;;;;;;;;4983036;28;20038;-84
2022/11/22 07:47:46;;;;;;;7.65;3.38;;;;;;;;;;4988672;28;20030;-84
2022/11/22 07:50:12;;;;;;;15.80;4.57;;;;;;;;;;4993111;28;20034;-83
2022/11/22 07:52:38;;;;;;;5.28;2.65;;;;;;;;;;4990545;28;20506;-84
2022/11/22 07:55:07;;;;;;;7.82;3.88;;;;;;;;;;4998238;28;20029;-84
2022/11/22 07:57:33;;;;;;;10.48;4.85;;;;;;;;;;4986347;28;20234;-84
2022/11/22 08:00:00;;;;;;;12.73;4.22;;;;;;;;;;4989133;28;20045;-84
2022/11/22 08:02:25;;;;;;;5.45;4.15;;;;;;;;;;4996451;28;20034;-84
2022/11/22 08:04:52;;;;;;;9.63;4.18;;;;;;;;;;4993333;28;20042;-84
2022/11/22 08:07:17;;;;;;;7.57;4.35;;;;;;;;;;4997298;28;20026;-84
2022/11/22 08:09:43;;;;;;;6.88;3.50;;;;;;;;;;4994706;28;20050;-84
2022/11/22 08:12:09;;;;;;;12.88;3.95;;;;;;;;;;4988969;28;20041;-84
2022/11/22 08:14:35;;;;;;;9.30;5.53;;;;;;;;;;4991142;28;20023;-84
2022/11/22 08:17:01;;;;;;;22.23;4.55;;;;;;;;;;4990848;28;20037;-84
2022/11/22 08:19:29;;;;;;;3.35;2.33;;;;;;;;;;4982630;28;20026;-84
2022/11/22 08:21:55;;;;;;;9.05;4.32;;;;;;;;;;4986915;28;20039;-81
2022/11/22 08:25:01;;;;;;;9.55;3.92;;;;;;;;;;4987747;28;20489;-83
2022/11/22 08:27:30;;;;;;;9.43;4.22;;;;;;;;;;4975443;28;20050;-85
2022/11/22 08:34:00;;;;;;;11.25;4.82;;;;;;;;;;4984563;28;20050;-83
2022/11/22 08:36:26;;;;;;;24.98;5.88;;;;;;;;;;4989670;28;20031;-84
2022/11/22 08:39:16;;;;;;;7.35;5.70;;;;;;;;;;4994310;28;20396;-86
2022/11/22 09:27:52;;;;;;;6.03;2.75;;;;;;;;;;5742393;23;20049;-96
2022/11/22 09:30:20;;;;;;;10.40;3.78;;;;;;;;;;5020067;28;20025;-96
2022/11/22 09:32:46;;;;;;;5.47;2.53;;;;;;;;;;5022029;28;20038;-96
2022/11/22 09:35:15;;;;;;;9.55;2.15;;;;;;;;;;5013483;28;20067;-96
2022/11/22 09:37:43;;;;;;;3.22;2.15;;;;;;;;;;5012084;28;20048;-96
2022/11/22 09:40:09;;;;;;;5.30;2.63;;;;;;;;;;4998522;28;20034;-96
2022/11/22 09:42:35;;;;;;;7.65;2.28;;;;;;;;;;4987399;28;20030;-96
2022/11/22 09:45:23;;;;;;;9.73;3.10;;;;;;;;;;5012990;28;20033;-96
2022/11/22 09:47:52;;;;;;;9.35;3.40;;;;;;;;;;5009540;28;20478;-96
2022/11/22 09:50:38;;;;;;;7.20;2.97;;;;;;;;;;5000075;28;20036;-96
2022/11/22 09:53:19;;;;;;;6.35;2.35;;;;;;;;;;4983785;28;20036;-96
2022/11/22 09:55:48;;;;;;;12.48;3.28;;;;;;;;;;5019146;28;20022;-96
2022/11/22 09:58:32;;;;;;;8.57;4.38;;;;;;;;;;4999105;28;20048;-96
2022/11/22 10:01:22;;;;;;;5.53;2.50;;;;;;;;;;4968829;28;20018;-96
2022/11/22 10:04:01;;;;;;;9.27;1.85;;;;;;;;;;5000386;28;20022;-96
2022/11/22 10:06:38;;;;;;;7.03;4.57;;;;;;;;;;4977855;28;20049;-96
2022/11/22 10:09:23;;;;;;;9.15;4.55;;;;;;;;;;4981529;28;20034;-96
2022/11/22 10:11:49;;;;;;;5.40;3.15;;;;;;;;;;5028331;28;20030;-96
2022/11/22 10:14:15;;;;;;;7.47;3.25;;;;;;;;;;5001804;28;20034;-96
2022/11/22 10:17:02;;;;;;;8.45;4.15;;;;;;;;;;5006244;23;20040;-87
2022/11/22 10:19:36;;;;;;;4.25;2.50;;;;;;;;;;4986947;28;20053;-85
2022/11/22 10:22:14;;;;;;;12.05;3.05;;;;;;;;;;4983238;28;20031;-85
2022/11/22 10:24:45;;;;;;;12.98;2.78;;;;;;;;;;4983131;28;20041;-85
2022/11/22 10:27:12;;;;;;;9.98;3.80;;;;;;;;;;4979518;28;20038;-85
2022/11/22 10:29:44;;;;;;;12.85;3.83;;;;;;;;;;4971587;28;20034;-85
2022/11/22 10:32:10;;;;;;;4.68;2.85;;;;;;;;;;4976793;28;20042;-85
2022/11/22 10:34:52;;;;;;;7.82;3.97;;;;;;;;;;4982562;28;20094;-85
2022/11/22 10:37:45;;;;;;;6.15;3.28;;;;;;;;;;4995424;28;20043;-86
2022/11/22 10:40:36;;;;;;;11.32;3.63;;;;;;;;;;4999409;28;20049;-85
2022/11/22 10:43:10;;;;;;;6.32;4.05;;;;;;;;;;4951800;28;20081;-86
2022/11/22 10:45:56;;;;;;;7.53;3.97;;;;;;;;;;4968434;28;20058;-86
2022/11/22 10:48:33;;;;;;;27.30;6.25;;;;;;;;;;4953894;28;20114;-85
2022/11/22 10:50:59;;;;;;;15.65;7.65;;;;;;;;;;4969086;28;20027;-86
2022/11/22 10:53:28;;;;;;;19.23;8.57;;;;;;;;;;4975360;28;20438;-86
2022/11/22 10:56:02;;;;;;;13.70;6.20;;;;;;;;;;4976313;28;20393;-86
2022/11/22 10:58:34;;;;;;;12.30;6.45;;;;;;;;;;4963591;28;20038;-86
2022/11/22 11:01:08;;;;;;;7.60;4.50;;;;;;;;;;4959392;28;20034;-86
2022/11/22 11:03:36;;;;;;;7.43;3.72;;;;;;;;;;4971184;28;20523;-86
2022/11/22 11:06:13;;;;;;;9.48;6.22;;;;;;;;;;4956018;28;20392;-86
2022/11/22 11:08:43;;;;;;;6.45;3.83;;;;;;;;;;4963071;28;20046;-87
2022/11/22 11:11:08;;;;;;;7.03;3.50;;;;;;;;;;4965472;28;20026;-86
2022/11/22 11:13:44;;;;;;;7.63;3.53;;;;;;;;;;4971237;28;20574;-86
2022/11/22 11:26:18;;;;;;;;;;;;;;;;;;;;;
2022/11/22 11:43:18;;;;;;;;;;;;;;;;;;;;;
2022/11/22 11:45:52;;;;;;;5.80;2.10;;;;;;;;;;4836698;29;20033;-86
2022/11/22 11:48:27;;;;;;;6.25;2.13;;;;;;;;;;4928690;28;20038;-87
2022/11/22 11:51:14;;;;;;;5.38;2.28;;;;;;;;;;4974779;28;20033;-87
2022/11/22 11:53:49;;;;;;;7.80;2.88;;;;;;;;;;5000498;28;20037;-87
2022/11/22 11:56:33;;;;;;;7.10;2.85;;;;;;;;;;4987241;28;20047;-86
2022/11/22 11:59:02;;;;;;;3.50;1.70;;;;;;;;;;4989934;28;20030;-86
2022/11/22 12:01:31;;;;;;;7.22;2.25;;;;;;;;;;4985823;28;20026;-86
2022/11/22 12:04:00;;;;;;;8.15;3.05;;;;;;;;;;4984380;28;20037;-86
2022/11/22 12:06:29;;;;;;;3.97;1.67;;;;;;;;;;4965328;28;20034;-86
2022/11/22 12:08:56;;;;;;;8.55;2.40;;;;;;;;;;4976781;28;20040;-86
2022/11/22 12:11:34;;;;;;;5.32;1.98;;;;;;;;;;4978232;28;20037;-86
2022/11/22 12:14:02;;;;;;;2.65;1.50;;;;;;;;;;4999295;28;20026;-86
2022/11/22 12:16:41;;;;;;;10.93;3.75;;;;;;;;;;4986162;28;20030;-86
2022/11/22 12:19:22;;;;;;;5.50;2.67;;;;;;;;;;4991931;28;20034;-87
2022/11/22 12:22:00;;;;;;;3.15;2.22;;;;;;;;;;4991589;28;20049;-85
2022/11/22 12:24:27;;;;;;;7.70;1.90;;;;;;;;;;4970894;28;20038;-83
2022/11/22 12:26:54;;;;;;;3.47;1.73;;;;;;;;;;4974706;28;20034;-86
2022/11/22 12:29:20;;;;;;;6.18;2.97;;;;;;;;;;4984146;28;20043;-86
2022/11/22 12:31:56;;;;;;;5.18;2.20;;;;;;;;;;4959748;28;20035;-85
2022/11/22 12:34:24;;;;;;;4.60;2.60;;;;;;;;;;4997859;28;20034;-86
2022/11/22 12:37:10;;;;;;;4.03;2.50;;;;;;;;;;4998214;28;20037;-85
2022/11/22 12:39:36;;;;;;;;;;;;;;;;;;4972567;28;20038;-85
2022/11/22 12:42:10;;;;;;;5.40;1.83;;;;;;;;;;4970993;28;19917;-85
2022/11/22 12:44:43;;;;;;;5.93;2.22;;;;;;;;;;4989395;28;20045;-85
2022/11/22 12:47:12;;;;;;;3.92;1.17;;;;;;;;;;4980149;28;20400;-85
2022/11/22 12:49:44;;;;;;;4.38;1.73;;;;;;;;;;4956642;28;20772;-86
2022/11/22 12:52:16;;;;;;;2.03;1.80;;;;;;;;;;4987954;28;21057;-86
2022/11/22 12:54:57;;;;;;;1.75;1.02;;;;;;;;;;4969154;28;20030;-86
2022/11/22 12:57:38;;;;;;;6.90;2.10;;;;;;;;;;4988044;28;20038;-86
2022/11/22 13:00:15;;;;;;;2.58;1.65;;;;;;;;;;4997691;28;20049;-85
2022/11/22 13:02:44;;;;;;;8.05;1.55;;;;;;;;;;4967257;28;20030;-86
2022/11/22 13:05:16;;;;;;;4.72;2.10;;;;;;;;;;4984913;28;20038;-85
2022/11/22 13:07:55;;;;;;;10.27;3.40;;;;;;;;;;4966376;28;20034;-85
2022/11/22 13:10:31;;;;;;;3.75;2.25;;;;;;;;;;4982937;28;20038;-86
2022/11/22 13:13:03;;;;;;;5.30;1.77;;;;;;;;;;4998347;28;20022;-85
2022/11/22 13:15:31;;;;;;;5.18;1.65;;;;;;;;;;4987714;28;20480;-86
2022/11/22 13:17:57;;;;;;;4.55;1.55;;;;;;;;;;5022112;22;20045;-73
2022/11/22 13:20:29;;;;;;;5.68;2.17;;;;;;;;;;4989932;28;20045;-72
2022/11/22 13:23:16;;;;;;;5.68;1.90;;;;;;;;;;5001269;28;20033;-73
2022/11/22 13:25:42;;;;;;;5.05;1.98;;;;;;;;;;4998345;28;20057;-73
2022/11/22 13:28:21;;;;;;;4.65;2.15;;;;;;;;;;4999253;28;20369;-72
2022/11/22 13:31:22;;;;;;;3.83;1.88;;;;;;;;;;5014103;28;20026;-73
2022/11/22 13:33:51;;;;;;;4.65;1.42;;;;;;;;;;4953271;28;20034;-72
2022/11/22 13:36:23;;;;;;;4.60;1.80;;;;;;;;;;4978704;28;20045;-73
2022/11/22 13:38:55;;;;;;;4.43;1.55;;;;;;;;;;5008957;28;20041;-73
2022/11/22 13:41:21;;;;;;;3.97;1.20;;;;;;;;;;4992993;28;20045;-73
2022/11/22 13:43:54;;;;;;;2.83;1.20;;;;;;;;;;4995897;28;20391;-73
2022/11/22 13:46:56;;;;;;;2.13;1.05;;;;;;;;;;4977954;28;20034;-73
2022/11/22 13:49:43;;;;;;;3.50;1.20;;;;;;;;;;4975600;28;20058;-73
2022/11/22 13:52:15;;;;;;;2.88;1.83;;;;;;;;;;4987053;28;20049;-73
2022/11/22 13:54:56;;;;;;;3.88;2.47;;;;;;;;;;5012534;28;20033;-73
2022/11/22 13:57:28;;;;;;;3.53;1.30;;;;;;;;;;5000926;28;20037;-73
2022/11/22 14:00:15;;;;;;;5.60;2.17;;;;;;;;;;5010387;28;20046;-72
2022/11/22 14:02:45;;;;;;;1.58;1.23;;;;;;;;;;5024740;28;20053;-72
2022/11/22 14:05:25;;;;;;;6.60;1.80;;;;;;;;;;5009355;28;20030;-73
2022/11/22 14:08:00;;;;;;;2.28;1.65;;;;;;;;;;5006471;28;20420;-73
2022/11/22 14:10:34;;;;;;;4.40;1.40;;;;;;;;;;5008156;28;20029;-73
2022/11/22 14:13:06;;;;;;;4.18;1.70;;;;;;;;;;4998697;28;20473;-73
2022/11/22 14:15:50;;;;;;;1.67;1.30;;;;;;;;;;4977991;28;20041;-73
2022/11/22 14:18:25;;;;;;;4.18;1.83;;;;;;;;;;4995677;28;20025;-73
2022/11/22 14:21:05;;;;;;;1.80;1.10;;;;;;;;;;5013746;28;20406;-73
2022/11/22 14:23:42;;;;;;;6.15;2.10;;;;;;;;;;4996308;28;20395;-73
2022/11/22 14:26:22;;;;;;;2.45;1.70;;;;;;;;;;5013702;28;20030;-73
2022/11/22 14:28:48;;;;;;;10.02;2.40;;;;;;;;;;4993533;28;20038;-73
2022/11/22 14:31:20;;;;;;;7.05;2.85;;;;;;;;;;4996907;28;20033;-73
2022/11/22 14:34:05;;;;;;;3.08;1.40;;;;;;;;;;5004537;28;20396;-73
2022/11/22 14:36:31;;;;;;;5.28;1.27;;;;;;;;;;5001046;28;20392;-73
2022/11/22 14:38:57;;;;;;;2.28;1.02;;;;;;;;;;5010358;28;20037;-73
2022/11/22 14:41:25;;;;;;;6.78;1.85;;;;;;;;;;5012523;28;20045;-72
2022/11/22 14:43:58;;;;;;;3.65;1.92;;;;;;;;;;4996415;28;20049;-73
2022/11/22 14:46:27;;;;;;;5.50;2.28;;;;;;;;;;5011807;28;20034;-73
2022/11/22 14:49:02;;;;;;;4.55;1.90;;;;;;;;;;5004513;28;20026;-73
2022/11/22 14:51:29;;;;;;;3.08;1.42;;;;;;;;;;4989624;28;20034;-73
2022/11/22 14:53:58;;;;;;;4.65;1.75;;;;;;;;;;4977102;28;20369;-72
2022/11/22 14:56:32;;;;;;;4.50;2.25;;;;;;;;;;4990374;28;20488;-73
2022/11/22 14:58:58;;;;;;;3.20;1.00;;;;;;;;;;5008548;28;20034;-73
2022/11/22 15:01:35;;;;;;;5.40;1.60;;;;;;;;;;4991567;28;20411;-73
2022/11/22 15:04:07;;;;;;;2.90;1.15;;;;;;;;;;5016144;28;20025;-73
2022/11/22 15:06:33;;;;;;;2.08;1.38;;;;;;;;;;5000450;28;20029;-73
2022/11/22 15:09:14;;;;;;;2.85;1.85;;;;;;;;;;5000005;28;20518;-73
2022/11/22 15:11:58;;;;;;;2.40;1.00;;;;;;;;;;5009500;28;20029;-72
2022/11/22 15:14:33;;;;;;;4.40;1.02;;;;;;;;;;4994117;28;20034;-72
2022/11/22 15:17:00;;;;;;;2.63;1.02;;;;;;;;;;5011552;28;20034;-73
2022/11/22 15:19:33;;;;;;;1.77;1.02;;;;;;;;;;4987943;28;20056;-73
2022/11/22 15:21:59;;;;;;;;;;;;;;;;;;5004809;28;20551;-73
2022/11/22 15:24:30;;;;;;;4.63;0.80;;;;;;;;;;5004898;28;19908;-74
2022/11/22 15:26:58;;;;;;;1.10;0.88;;;;;;;;;;4992955;28;20054;-73
2022/11/22 15:29:26;;;;;;;1.95;0.60;;;;;;;;;;4991337;28;20038;-73
2022/11/22 15:31:52;;;;;;;1.63;1.10;;;;;;;;;;5003119;28;20038;-71
2022/11/22 15:34:21;;;;;;;1.33;0.73;;;;;;;;;;5008745;28;20026;-74
2022/11/22 15:36:59;;;;;;;1.83;1.35;;;;;;;;;;5013459;28;20033;-74
2022/11/22 15:39:33;;;;;;;1.95;0.93;;;;;;;;;;4983763;28;20034;-74
2022/11/22 15:42:04;;;;;;;;;;;;;;;;;;4977724;28;20037;-73
2022/11/22 15:44:33;;;;;;;2.88;1.73;;;;;;;;;;4993588;28;19918;-73
2022/11/22 15:47:01;;;;;;;2.22;2.03;;;;;;;;;;4985518;28;20037;-72
2022/11/22 15:49:30;;;;;;;3.90;1.40;;;;;;;;;;4994749;28;20388;-72
2022/11/22 15:51:59;;;;;;;7.75;1.20;;;;;;;;;;5006085;28;20022;-72
2022/11/22 15:54:37;;;;;;;1.42;0.60;;;;;;;;;;4993356;28;20061;-71
2022/11/22 15:57:21;;;;;;;3.80;0.88;;;;;;;;;;5002860;28;20030;-72
2022/11/22 15:59:48;;;;;;;2.80;0.80;;;;;;;;;;4992160;28;20034;-72
2022/11/22 16:02:21;;;;;;;1.35;1.13;;;;;;;;;;5000634;28;20525;-72
2022/11/22 16:04:49;;;;;;;1.23;0.93;;;;;;;;;;5017076;28;20033;-72
2022/11/22 16:07:27;;;;;;;2.90;1.55;;;;;;;;;;5004803;28;20074;-73
2022/11/22 16:09:55;;;;;;;3.10;1.25;;;;;;;;;;4997441;28;20033;-72
2022/11/22 16:12:26;;;;;;;2.10;1.20;;;;;;;;;;4992583;28;20037;-72
2022/11/22 16:14:56;;;;;;;;;;;;;;;;;;5009879;28;20026;-72
2022/11/22 16:17:25;;;;;;;2.75;1.10;;;;;;;;;;5002282;28;19921;-72
2022/11/22 16:20:10;;;;;;;2.00;1.52;;;;;;;;;;4993770;28;20033;-72
2022/11/22 16:22:39;;;;;;;1.67;0.88;;;;;;;;;;5000129;28;20037;-73
2022/11/22 16:25:41;;;;;;;3.83;0.90;;;;;;;;;;5007207;28;20034;-73
2022/11/22 16:28:19;;;;;;;3.70;1.77;;;;;;;;;;4911376;29;20431;-73
2022/11/22 16:30:47;;;;;;;3.63;1.45;;;;;;;;;;5004100;28;20416;-73